sensor_id;sensor_type;location;lat;lon;timestamp;temperature;humidity
61004;DHT22;46889;37.310;13.582;2022-08-19T00:01:43;30.90;88.40
61004;DHT22;46889;37.310;13.582;2022-08-19T00:04:12;30.50;89.80
61004;DHT22;46889;37.310;13.582;2022-08-19T00:06:40;30.20;90.30
61004;DHT22;46889;37.310;13.582;2022-08-19T00:09:08;30.10;90.50
61004;DHT22;46889;37.310;13.582;2022-08-19T00:11:35;30.00;90.60
61004;DHT22;46889;37.310;13.582;2022-08-19T00:14:03;29.90;90.50
61004;DHT22;46889;37.310;13.582;2022-08-19T00:16:30;30.00;90.40
61004;DHT22;46889;37.310;13.582;2022-08-19T00:18:56;30.00;90.40
61004;DHT22;46889;37.310;13.582;2022-08-19T00:21:26;30.00;90.30
61004;DHT22;46889;37.310;13.582;2022-08-19T00:23:54;30.00;90.40
61004;DHT22;46889;37.310;13.582;2022-08-19T00:26:20;30.00;90.80
61004;DHT22;46889;37.310;13.582;2022-08-19T00:28:46;29.90;91.10
61004;DHT22;46889;37.310;13.582;2022-08-19T00:31:13;29.90;93.10
61004;DHT22;46889;37.310;13.582;2022-08-19T00:33:39;29.90;94.70
61004;DHT22;46889;37.310;13.582;2022-08-19T00:36:07;29.90;95.70
61004;DHT22;46889;37.310;13.582;2022-08-19T00:38:34;29.90;96.90
61004;DHT22;46889;37.310;13.582;2022-08-19T00:41:00;29.80;98.10
61004;DHT22;46889;37.310;13.582;2022-08-19T00:43:27;29.80;99.20
61004;DHT22;46889;37.310;13.582;2022-08-19T00:45:53;29.80;99.90
61004;DHT22;46889;37.310;13.582;2022-08-19T00:48:20;29.80;99.90
61004;DHT22;46889;37.310;13.582;2022-08-19T00:50:47;29.60;99.90
61004;DHT22;46889;37.310;13.582;2022-08-19T00:53:16;29.60;99.90
61004;DHT22;46889;37.310;13.582;2022-08-19T00:55:48;29.60;99.90
61004;DHT22;46889;37.310;13.582;2022-08-19T00:58:18;29.60;99.90
61004;DHT22;46889;37.310;13.582;2022-08-19T01:00:46;29.50;99.90
61004;DHT22;46889;37.310;13.582;2022-08-19T01:03:16;29.50;99.90
61004;DHT22;46889;37.310;13.582;2022-08-19T01:05:43;29.50;99.90
61004;DHT22;46889;37.310;13.582;2022-08-19T01:08:11;29.50;99.90
61004;DHT22;46889;37.310;13.582;2022-08-19T01:10:41;29.50;99.90
61004;DHT22;46889;37.310;13.582;2022-08-19T01:13:07;29.40;99.90
61004;DHT22;46889;37.310;13.582;2022-08-19T01:15:44;29.40;99.90
61004;DHT22;46889;37.310;13.582;2022-08-19T01:18:13;29.40;99.90
61004;DHT22;46889;37.310;13.582;2022-08-19T01:20:43;29.40;99.90
61004;DHT22;46889;37.310;13.582;2022-08-19T01:23:10;29.40;99.90
61004;DHT22;46889;37.310;13.582;2022-08-19T01:25:49;29.30;99.90
61004;DHT22;46889;37.310;13.582;2022-08-19T01:28:26;29.30;99.90
61004;DHT22;46889;37.310;13.582;2022-08-19T01:30:54;29.30;99.90
61004;DHT22;46889;37.310;13.582;2022-08-19T01:33:20;29.30;99.90
61004;DHT22;46889;37.310;13.582;2022-08-19T01:35:47;29.20;99.90
61004;DHT22;46889;37.310;13.582;2022-08-19T01:38:25;29.30;99.90
61004;DHT22;46889;37.310;13.582;2022-08-19T01:40:52;29.20;99.90
61004;DHT22;46889;37.310;13.582;2022-08-19T01:43:18;29.20;99.90
61004;DHT22;46889;37.310;13.582;2022-08-19T01:45:45;29.30;99.90
61004;DHT22;46889;37.310;13.582;2022-08-19T01:48:12;29.30;99.90
61004;DHT22;46889;37.310;13.582;2022-08-19T01:50:39;29.30;99.90
61004;DHT22;46889;37.310;13.582;2022-08-19T01:53:09;29.30;99.90
61004;DHT22;46889;37.310;13.582;2022-08-19T01:55:37;29.30;99.90
61004;DHT22;46889;37.310;13.582;2022-08-19T01:58:05;29.30;99.90
61004;DHT22;46889;37.310;13.582;2022-08-19T02:00:32;29.20;99.90
61004;DHT22;46889;37.310;13.582;2022-08-19T02:02:58;29.20;99.90
61004;DHT22;46889;37.310;13.582;2022-08-19T02:05:27;29.20;99.90
61004;DHT22;46889;37.310;13.582;2022-08-19T02:07:56;29.20;99.90
61004;DHT22;46889;37.310;13.582;2022-08-19T02:10:22;29.20;99.90
61004;DHT22;46889;37.310;13.582;2022-08-19T02:12:48;29.20;99.90
61004;DHT22;46889;37.310;13.582;2022-08-19T02:15:18;29.20;99.90
61004;DHT22;46889;37.310;13.582;2022-08-19T02:17:45;29.30;99.90
61004;DHT22;46889;37.310;13.582;2022-08-19T02:20:12;29.10;99.90
61004;DHT22;46889;37.310;13.582;2022-08-19T02:22:39;29.00;99.90
61004;DHT22;46889;37.310;13.582;2022-08-19T02:25:12;29.00;99.90
61004;DHT22;46889;37.310;13.582;2022-08-19T02:27:39;29.00;99.90
61004;DHT22;46889;37.310;13.582;2022-08-19T02:30:08;28.90;99.90
61004;DHT22;46889;37.310;13.582;2022-08-19T02:32:34;28.80;99.90
61004;DHT22;46889;37.310;13.582;2022-08-19T02:35:01;28.90;99.90
61004;DHT22;46889;37.310;13.582;2022-08-19T02:37:27;28.90;99.90
61004;DHT22;46889;37.310;13.582;2022-08-19T02:40:11;28.70;99.90
61004;DHT22;46889;37.310;13.582;2022-08-19T02:42:37;28.70;99.90
61004;DHT22;46889;37.310;13.582;2022-08-19T02:45:04;28.60;99.90
61004;DHT22;46889;37.310;13.582;2022-08-19T02:47:31;28.60;99.90
61004;DHT22;46889;37.310;13.582;2022-08-19T02:49:57;28.60;99.90
61004;DHT22;46889;37.310;13.582;2022-08-19T02:52:23;28.50;99.90
61004;DHT22;46889;37.310;13.582;2022-08-19T02:54:51;28.60;99.90
61004;DHT22;46889;37.310;13.582;2022-08-19T02:57:17;28.60;99.90
61004;DHT22;46889;37.310;13.582;2022-08-19T02:59:43;28.60;99.90
61004;DHT22;46889;37.310;13.582;2022-08-19T03:02:09;28.60;99.90
61004;DHT22;46889;37.310;13.582;2022-08-19T03:04:35;28.60;99.90
61004;DHT22;46889;37.310;13.582;2022-08-19T03:07:01;28.60;99.90
61004;DHT22;46889;37.310;13.582;2022-08-19T03:09:27;28.60;99.90
61004;DHT22;46889;37.310;13.582;2022-08-19T03:11:53;28.50;99.90
61004;DHT22;46889;37.310;13.582;2022-08-19T03:14:19;28.40;99.90
61004;DHT22;46889;37.310;13.582;2022-08-19T03:16:47;28.10;99.90
61004;DHT22;46889;37.310;13.582;2022-08-19T03:19:16;28.00;99.90
61004;DHT22;46889;37.310;13.582;2022-08-19T03:21:43;27.90;99.90
61004;DHT22;46889;37.310;13.582;2022-08-19T03:24:10;27.90;99.90
61004;DHT22;46889;37.310;13.582;2022-08-19T03:26:43;27.90;99.90
61004;DHT22;46889;37.310;13.582;2022-08-19T03:29:10;27.90;99.90
61004;DHT22;46889;37.310;13.582;2022-08-19T03:31:38;27.80;99.90
61004;DHT22;46889;37.310;13.582;2022-08-19T03:34:05;27.90;99.90
61004;DHT22;46889;37.310;13.582;2022-08-19T03:36:31;27.90;99.90
61004;DHT22;46889;37.310;13.582;2022-08-19T03:38:58;27.80;99.90
61004;DHT22;46889;37.310;13.582;2022-08-19T03:41:30;27.80;99.90
61004;DHT22;46889;37.310;13.582;2022-08-19T03:43:57;27.80;99.90
61004;DHT22;46889;37.310;13.582;2022-08-19T03:46:24;27.90;99.90
61004;DHT22;46889;37.310;13.582;2022-08-19T03:48:52;27.90;99.90
61004;DHT22;46889;37.310;13.582;2022-08-19T03:51:32;27.90;99.90
61004;DHT22;46889;37.310;13.582;2022-08-19T03:53:59;28.00;99.90
61004;DHT22;46889;37.310;13.582;2022-08-19T03:56:27;28.00;99.90
61004;DHT22;46889;37.310;13.582;2022-08-19T03:58:57;28.00;99.90
61004;DHT22;46889;37.310;13.582;2022-08-19T04:01:25;28.00;99.90
61004;DHT22;46889;37.310;13.582;2022-08-19T04:03:58;27.90;99.90
61004;DHT22;46889;37.310;13.582;2022-08-19T04:06:31;28.00;99.90
61004;DHT22;46889;37.310;13.582;2022-08-19T04:08:58;28.00;99.90
61004;DHT22;46889;37.310;13.582;2022-08-19T04:11:33;27.90;99.90
61004;DHT22;46889;37.310;13.582;2022-08-19T04:13:59;28.00;99.90
61004;DHT22;46889;37.310;13.582;2022-08-19T04:16:26;27.90;99.90
61004;DHT22;46889;37.310;13.582;2022-08-19T04:18:56;27.90;99.90
61004;DHT22;46889;37.310;13.582;2022-08-19T04:21:25;28.00;99.90
61004;DHT22;46889;37.310;13.582;2022-08-19T04:23:52;28.00;99.90
61004;DHT22;46889;37.310;13.582;2022-08-19T04:26:21;28.00;99.90
61004;DHT22;46889;37.310;13.582;2022-08-19T04:28:48;28.00;99.90
61004;DHT22;46889;37.310;13.582;2022-08-19T04:31:17;28.00;99.90
61004;DHT22;46889;37.310;13.582;2022-08-19T04:33:43;28.00;99.90
61004;DHT22;46889;37.310;13.582;2022-08-19T04:36:18;27.90;99.90
61004;DHT22;46889;37.310;13.582;2022-08-19T04:38:45;27.90;99.90
61004;DHT22;46889;37.310;13.582;2022-08-19T04:41:11;28.00;99.90
61004;DHT22;46889;37.310;13.582;2022-08-19T04:43:55;27.90;99.90
61004;DHT22;46889;37.310;13.582;2022-08-19T04:46:21;28.00;99.90
61004;DHT22;46889;37.310;13.582;2022-08-19T04:48:47;28.00;99.90
61004;DHT22;46889;37.310;13.582;2022-08-19T04:51:13;28.10;99.90
61004;DHT22;46889;37.310;13.582;2022-08-19T04:53:41;28.10;99.90
61004;DHT22;46889;37.310;13.582;2022-08-19T04:56:13;28.20;99.90
61004;DHT22;46889;37.310;13.582;2022-08-19T04:58:40;28.30;99.90
61004;DHT22;46889;37.310;13.582;2022-08-19T05:01:11;28.40;99.90
61004;DHT22;46889;37.310;13.582;2022-08-19T05:03:38;28.50;99.90
61004;DHT22;46889;37.310;13.582;2022-08-19T05:06:06;28.60;99.90
61004;DHT22;46889;37.310;13.582;2022-08-19T05:08:34;28.70;99.90
61004;DHT22;46889;37.310;13.582;2022-08-19T05:11:09;28.70;99.90
61004;DHT22;46889;37.310;13.582;2022-08-19T05:13:37;28.70;99.90
61004;DHT22;46889;37.310;13.582;2022-08-19T05:16:04;29.00;99.90
61004;DHT22;46889;37.310;13.582;2022-08-19T05:18:30;29.10;99.90
61004;DHT22;46889;37.310;13.582;2022-08-19T05:21:17;29.30;99.90
61004;DHT22;46889;37.310;13.582;2022-08-19T05:24:02;29.40;99.90
61004;DHT22;46889;37.310;13.582;2022-08-19T05:26:28;29.50;99.90
61004;DHT22;46889;37.310;13.582;2022-08-19T05:28:54;29.60;99.90
61004;DHT22;46889;37.310;13.582;2022-08-19T05:31:21;29.70;99.90
61004;DHT22;46889;37.310;13.582;2022-08-19T05:33:47;29.80;99.90
61004;DHT22;46889;37.310;13.582;2022-08-19T05:36:15;30.20;99.90
61004;DHT22;46889;37.310;13.582;2022-08-19T05:38:41;30.40;99.90
61004;DHT22;46889;37.310;13.582;2022-08-19T05:41:12;30.50;99.90
61004;DHT22;46889;37.310;13.582;2022-08-19T05:43:38;30.80;99.90
61004;DHT22;46889;37.310;13.582;2022-08-19T05:46:05;31.00;99.90
61004;DHT22;46889;37.310;13.582;2022-08-19T05:48:35;31.30;99.90
61004;DHT22;46889;37.310;13.582;2022-08-19T05:51:05;31.70;99.90
61004;DHT22;46889;37.310;13.582;2022-08-19T05:53:33;31.80;99.90
61004;DHT22;46889;37.310;13.582;2022-08-19T05:56:08;31.90;99.90
61004;DHT22;46889;37.310;13.582;2022-08-19T05:58:36;31.90;99.90
61004;DHT22;46889;37.310;13.582;2022-08-19T06:01:03;32.10;99.90
61004;DHT22;46889;37.310;13.582;2022-08-19T06:03:35;32.20;99.90
61004;DHT22;46889;37.310;13.582;2022-08-19T06:06:04;32.50;99.90
61004;DHT22;46889;37.310;13.582;2022-08-19T06:08:31;32.40;99.90
61004;DHT22;46889;37.310;13.582;2022-08-19T06:10:58;32.50;99.90
61004;DHT22;46889;37.310;13.582;2022-08-19T06:13:36;32.30;99.90
61004;DHT22;46889;37.310;13.582;2022-08-19T06:16:03;32.10;99.90
61004;DHT22;46889;37.310;13.582;2022-08-19T06:18:28;31.60;99.90
61004;DHT22;46889;37.310;13.582;2022-08-19T06:20:54;31.50;99.90
61004;DHT22;46889;37.310;13.582;2022-08-19T06:23:20;31.30;99.90
61004;DHT22;46889;37.310;13.582;2022-08-19T06:25:46;31.40;99.90
61004;DHT22;46889;37.310;13.582;2022-08-19T06:28:13;31.40;99.90
61004;DHT22;46889;37.310;13.582;2022-08-19T06:30:39;31.40;99.90
61004;DHT22;46889;37.310;13.582;2022-08-19T06:33:05;31.30;99.90
61004;DHT22;46889;37.310;13.582;2022-08-19T06:35:31;31.10;99.90
61004;DHT22;46889;37.310;13.582;2022-08-19T06:37:56;31.20;99.90
61004;DHT22;46889;37.310;13.582;2022-08-19T06:40:23;31.10;99.90
61004;DHT22;46889;37.310;13.582;2022-08-19T06:42:49;31.00;99.90
61004;DHT22;46889;37.310;13.582;2022-08-19T06:45:15;31.00;99.90
61004;DHT22;46889;37.310;13.582;2022-08-19T06:47:41;31.10;99.90
61004;DHT22;46889;37.310;13.582;2022-08-19T06:50:11;31.30;99.90
61004;DHT22;46889;37.310;13.582;2022-08-19T06:52:38;31.30;99.90
61004;DHT22;46889;37.310;13.582;2022-08-19T06:55:05;31.40;99.90
61004;DHT22;46889;37.310;13.582;2022-08-19T06:57:32;31.80;99.90
61004;DHT22;46889;37.310;13.582;2022-08-19T06:59:58;32.50;99.90
61004;DHT22;46889;37.310;13.582;2022-08-19T07:02:25;33.30;99.90
61004;DHT22;46889;37.310;13.582;2022-08-19T07:04:53;33.80;99.90
61004;DHT22;46889;37.310;13.582;2022-08-19T07:07:20;34.50;99.90
61004;DHT22;46889;37.310;13.582;2022-08-19T07:09:46;34.80;99.90
61004;DHT22;46889;37.310;13.582;2022-08-19T07:12:14;34.60;99.90
61004;DHT22;46889;37.310;13.582;2022-08-19T07:14:41;35.20;99.90
61004;DHT22;46889;37.310;13.582;2022-08-19T07:17:10;35.30;99.90
61004;DHT22;46889;37.310;13.582;2022-08-19T07:19:38;35.20;99.90
61004;DHT22;46889;37.310;13.582;2022-08-19T07:22:06;34.90;99.90
61004;DHT22;46889;37.310;13.582;2022-08-19T07:24:33;34.80;99.90
61004;DHT22;46889;37.310;13.582;2022-08-19T07:27:02;34.00;99.90
61004;DHT22;46889;37.310;13.582;2022-08-19T07:29:31;33.70;99.90
61004;DHT22;46889;37.310;13.582;2022-08-19T07:32:00;33.20;99.90
61004;DHT22;46889;37.310;13.582;2022-08-19T07:34:28;32.90;99.90
61004;DHT22;46889;37.310;13.582;2022-08-19T07:36:55;32.50;99.90
61004;DHT22;46889;37.310;13.582;2022-08-19T07:39:25;32.60;99.90
61004;DHT22;46889;37.310;13.582;2022-08-19T07:41:52;32.80;99.90
61004;DHT22;46889;37.310;13.582;2022-08-19T07:44:19;32.80;99.90
61004;DHT22;46889;37.310;13.582;2022-08-19T07:46:50;32.60;99.90
61004;DHT22;46889;37.310;13.582;2022-08-19T07:49:17;32.30;99.90
61004;DHT22;46889;37.310;13.582;2022-08-19T07:51:51;32.00;99.90
61004;DHT22;46889;37.310;13.582;2022-08-19T07:54:19;32.10;99.90
61004;DHT22;46889;37.310;13.582;2022-08-19T07:56:45;32.30;99.90
61004;DHT22;46889;37.310;13.582;2022-08-19T07:59:12;32.50;99.90
61004;DHT22;46889;37.310;13.582;2022-08-19T08:01:38;33.00;99.90
61004;DHT22;46889;37.310;13.582;2022-08-19T08:04:06;33.50;99.90
61004;DHT22;46889;37.310;13.582;2022-08-19T08:06:51;34.00;99.90
61004;DHT22;46889;37.310;13.582;2022-08-19T08:09:38;34.50;99.90
61004;DHT22;46889;37.310;13.582;2022-08-19T08:12:15;34.40;99.90
61004;DHT22;46889;37.310;13.582;2022-08-19T08:14:47;34.30;99.90
61004;DHT22;46889;37.310;13.582;2022-08-19T08:17:15;34.40;99.90
61004;DHT22;46889;37.310;13.582;2022-08-19T08:19:43;34.40;99.90
61004;DHT22;46889;37.310;13.582;2022-08-19T08:22:11;34.00;99.90
61004;DHT22;46889;37.310;13.582;2022-08-19T08:24:56;33.80;99.90
61004;DHT22;46889;37.310;13.582;2022-08-19T08:27:25;33.70;99.90
61004;DHT22;46889;37.310;13.582;2022-08-19T08:29:57;33.50;99.90
61004;DHT22;46889;37.310;13.582;2022-08-19T08:32:23;34.00;99.90
61004;DHT22;46889;37.310;13.582;2022-08-19T08:34:49;34.20;99.80
61004;DHT22;46889;37.310;13.582;2022-08-19T08:37:15;34.30;99.30
61004;DHT22;46889;37.310;13.582;2022-08-19T08:39:41;34.50;98.60
61004;DHT22;46889;37.310;13.582;2022-08-19T08:42:34;34.60;98.20
61004;DHT22;46889;37.310;13.582;2022-08-19T08:45:13;34.80;97.80
61004;DHT22;46889;37.310;13.582;2022-08-19T08:47:46;34.40;97.90
61004;DHT22;46889;37.310;13.582;2022-08-19T08:50:21;34.00;98.50
61004;DHT22;46889;37.310;13.582;2022-08-19T08:52:52;34.30;98.10
61004;DHT22;46889;37.310;13.582;2022-08-19T08:55:26;34.00;98.40
61004;DHT22;46889;37.310;13.582;2022-08-19T08:58:03;33.80;98.60
61004;DHT22;46889;37.310;13.582;2022-08-19T09:00:33;34.10;98.30
61004;DHT22;46889;37.310;13.582;2022-08-19T09:03:02;34.30;98.10
61004;DHT22;46889;37.310;13.582;2022-08-19T09:05:56;34.20;97.90
61004;DHT22;46889;37.310;13.582;2022-08-19T09:08:56;34.60;98.00
61004;DHT22;46889;37.310;13.582;2022-08-19T09:14:54;35.50;96.30
61004;DHT22;46889;37.310;13.582;2022-08-19T09:17:25;35.80;95.10
61004;DHT22;46889;37.310;13.582;2022-08-19T09:22:37;35.80;94.50
61004;DHT22;46889;37.310;13.582;2022-08-19T09:25:05;35.90;93.70
61004;DHT22;46889;37.310;13.582;2022-08-19T09:27:31;36.00;93.80
61004;DHT22;46889;37.310;13.582;2022-08-19T09:29:58;36.20;92.90
61004;DHT22;46889;37.310;13.582;2022-08-19T09:32:25;36.50;92.20
61004;DHT22;46889;37.310;13.582;2022-08-19T09:34:53;36.40;92.20
61004;DHT22;46889;37.310;13.582;2022-08-19T09:37:20;36.60;91.90
61004;DHT22;46889;37.310;13.582;2022-08-19T09:39:47;36.80;91.30
61004;DHT22;46889;37.310;13.582;2022-08-19T09:42:13;36.60;91.10
61004;DHT22;46889;37.310;13.582;2022-08-19T09:44:41;36.60;90.90
61004;DHT22;46889;37.310;13.582;2022-08-19T09:47:09;36.60;90.60
61004;DHT22;46889;37.310;13.582;2022-08-19T09:49:36;36.40;90.80
61004;DHT22;46889;37.310;13.582;2022-08-19T09:52:04;36.50;90.20
61004;DHT22;46889;37.310;13.582;2022-08-19T09:54:30;36.70;90.40
61004;DHT22;46889;37.310;13.582;2022-08-19T09:56:59;36.90;91.10
61004;DHT22;46889;37.310;13.582;2022-08-19T09:59:28;37.10;91.00
61004;DHT22;46889;37.310;13.582;2022-08-19T10:01:54;37.10;91.00
61004;DHT22;46889;37.310;13.582;2022-08-19T10:04:21;37.20;90.80
61004;DHT22;46889;37.310;13.582;2022-08-19T10:06:48;37.30;91.30
61004;DHT22;46889;37.310;13.582;2022-08-19T10:09:17;37.30;91.40
61004;DHT22;46889;37.310;13.582;2022-08-19T10:11:44;37.20;91.20
61004;DHT22;46889;37.310;13.582;2022-08-19T10:14:15;37.30;90.50
61004;DHT22;46889;37.310;13.582;2022-08-19T10:16:42;37.50;90.30
61004;DHT22;46889;37.310;13.582;2022-08-19T10:19:09;37.60;90.20
61004;DHT22;46889;37.310;13.582;2022-08-19T10:21:35;37.60;89.50
61004;DHT22;46889;37.310;13.582;2022-08-19T10:24:04;37.40;90.30
61004;DHT22;46889;37.310;13.582;2022-08-19T10:26:37;37.50;89.50
61004;DHT22;46889;37.310;13.582;2022-08-19T10:29:04;37.30;87.60
61004;DHT22;46889;37.310;13.582;2022-08-19T10:31:32;37.30;86.50
61004;DHT22;46889;37.310;13.582;2022-08-19T10:33:59;37.40;85.00
61004;DHT22;46889;37.310;13.582;2022-08-19T10:36:32;37.30;84.10
61004;DHT22;46889;37.310;13.582;2022-08-19T10:39:03;37.20;85.30
61004;DHT22;46889;37.310;13.582;2022-08-19T10:41:31;37.10;86.40
61004;DHT22;46889;37.310;13.582;2022-08-19T10:44:06;37.10;85.20
61004;DHT22;46889;37.310;13.582;2022-08-19T10:46:35;37.10;83.50
61004;DHT22;46889;37.310;13.582;2022-08-19T10:49:04;37.30;84.00
61004;DHT22;46889;37.310;13.582;2022-08-19T10:51:32;37.30;84.60
61004;DHT22;46889;37.310;13.582;2022-08-19T10:54:17;37.20;84.00
61004;DHT22;46889;37.310;13.582;2022-08-19T10:56:43;37.40;81.40
61004;DHT22;46889;37.310;13.582;2022-08-19T10:59:21;36.80;82.20
61004;DHT22;46889;37.310;13.582;2022-08-19T11:01:48;36.60;82.80
61004;DHT22;46889;37.310;13.582;2022-08-19T11:04:15;36.70;83.10
61004;DHT22;46889;37.310;13.582;2022-08-19T11:06:47;36.90;82.30
61004;DHT22;46889;37.310;13.582;2022-08-19T11:09:15;37.00;82.60
61004;DHT22;46889;37.310;13.582;2022-08-19T11:11:42;37.20;82.40
61004;DHT22;46889;37.310;13.582;2022-08-19T11:14:10;37.40;82.40
61004;DHT22;46889;37.310;13.582;2022-08-19T11:16:37;37.40;81.50
61004;DHT22;46889;37.310;13.582;2022-08-19T11:19:06;37.30;80.90
61004;DHT22;46889;37.310;13.582;2022-08-19T11:21:39;37.30;81.40
61004;DHT22;46889;37.310;13.582;2022-08-19T11:24:15;37.60;80.60
61004;DHT22;46889;37.310;13.582;2022-08-19T11:26:42;37.70;75.90
61004;DHT22;46889;37.310;13.582;2022-08-19T11:29:10;38.00;74.50
61004;DHT22;46889;37.310;13.582;2022-08-19T11:31:41;38.20;75.80
61004;DHT22;46889;37.310;13.582;2022-08-19T11:34:09;38.20;78.50
61004;DHT22;46889;37.310;13.582;2022-08-19T11:36:38;38.30;78.60
61004;DHT22;46889;37.310;13.582;2022-08-19T11:39:06;38.30;77.60
61004;DHT22;46889;37.310;13.582;2022-08-19T11:41:33;38.40;78.20
61004;DHT22;46889;37.310;13.582;2022-08-19T11:43:59;38.30;78.10
61004;DHT22;46889;37.310;13.582;2022-08-19T11:46:26;37.90;77.20
61004;DHT22;46889;37.310;13.582;2022-08-19T11:48:56;38.10;77.90
61004;DHT22;46889;37.310;13.582;2022-08-19T11:51:23;38.00;77.70
61004;DHT22;46889;37.310;13.582;2022-08-19T11:53:56;37.80;77.90
61004;DHT22;46889;37.310;13.582;2022-08-19T11:56:23;37.70;77.90
61004;DHT22;46889;37.310;13.582;2022-08-19T11:58:50;37.20;79.80
61004;DHT22;46889;37.310;13.582;2022-08-19T12:01:18;36.90;81.10
61004;DHT22;46889;37.310;13.582;2022-08-19T12:03:46;36.90;81.00
61004;DHT22;46889;37.310;13.582;2022-08-19T12:06:18;37.10;80.80
61004;DHT22;46889;37.310;13.582;2022-08-19T12:08:44;37.30;80.80
61004;DHT22;46889;37.310;13.582;2022-08-19T12:11:12;37.40;79.50
61004;DHT22;46889;37.310;13.582;2022-08-19T12:13:40;37.40;79.60
61004;DHT22;46889;37.310;13.582;2022-08-19T12:16:11;37.50;80.50
61004;DHT22;46889;37.310;13.582;2022-08-19T12:18:39;37.60;78.00
61004;DHT22;46889;37.310;13.582;2022-08-19T12:21:23;37.50;78.00
61004;DHT22;46889;37.310;13.582;2022-08-19T12:23:51;37.50;76.80
61004;DHT22;46889;37.310;13.582;2022-08-19T12:26:18;37.50;75.80
61004;DHT22;46889;37.310;13.582;2022-08-19T12:28:44;37.40;75.90
61004;DHT22;46889;37.310;13.582;2022-08-19T12:31:11;37.60;75.30
61004;DHT22;46889;37.310;13.582;2022-08-19T12:33:38;37.60;75.30
61004;DHT22;46889;37.310;13.582;2022-08-19T12:36:07;37.70;75.30
61004;DHT22;46889;37.310;13.582;2022-08-19T12:38:34;37.60;75.60
61004;DHT22;46889;37.310;13.582;2022-08-19T12:41:04;37.50;75.80
61004;DHT22;46889;37.310;13.582;2022-08-19T12:43:32;37.80;76.60
61004;DHT22;46889;37.310;13.582;2022-08-19T12:46:00;37.50;75.50
61004;DHT22;46889;37.310;13.582;2022-08-19T12:48:26;37.50;74.60
61004;DHT22;46889;37.310;13.582;2022-08-19T12:50:53;37.40;75.30
61004;DHT22;46889;37.310;13.582;2022-08-19T12:53:19;37.40;76.60
61004;DHT22;46889;37.310;13.582;2022-08-19T12:55:45;37.30;76.40
61004;DHT22;46889;37.310;13.582;2022-08-19T12:58:12;37.20;75.80
61004;DHT22;46889;37.310;13.582;2022-08-19T13:00:39;37.20;75.70
61004;DHT22;46889;37.310;13.582;2022-08-19T13:03:05;37.00;76.50
61004;DHT22;46889;37.310;13.582;2022-08-19T13:05:33;37.10;76.30
61004;DHT22;46889;37.310;13.582;2022-08-19T13:08:00;37.10;76.20
61004;DHT22;46889;37.310;13.582;2022-08-19T13:10:29;37.00;76.40
61004;DHT22;46889;37.310;13.582;2022-08-19T13:12:56;37.00;76.30
61004;DHT22;46889;37.310;13.582;2022-08-19T13:15:25;36.90;76.30
61004;DHT22;46889;37.310;13.582;2022-08-19T13:17:54;36.90;76.70
61004;DHT22;46889;37.310;13.582;2022-08-19T13:20:22;37.00;76.70
61004;DHT22;46889;37.310;13.582;2022-08-19T13:22:48;37.00;76.70
61004;DHT22;46889;37.310;13.582;2022-08-19T13:25:16;36.60;76.70
61004;DHT22;46889;37.310;13.582;2022-08-19T13:27:44;36.60;76.10
61004;DHT22;46889;37.310;13.582;2022-08-19T13:30:12;36.30;76.20
61004;DHT22;46889;37.310;13.582;2022-08-19T13:32:57;36.40;76.10
61004;DHT22;46889;37.310;13.582;2022-08-19T13:35:42;36.30;76.30
61004;DHT22;46889;37.310;13.582;2022-08-19T13:38:10;36.00;77.20
61004;DHT22;46889;37.310;13.582;2022-08-19T13:40:36;35.90;77.70
61004;DHT22;46889;37.310;13.582;2022-08-19T13:43:04;35.90;78.00
61004;DHT22;46889;37.310;13.582;2022-08-19T13:45:31;36.00;77.90
61004;DHT22;46889;37.310;13.582;2022-08-19T13:48:03;36.00;78.10
61004;DHT22;46889;37.310;13.582;2022-08-19T13:50:44;35.90;78.40
61004;DHT22;46889;37.310;13.582;2022-08-19T13:53:12;35.70;79.00
61004;DHT22;46889;37.310;13.582;2022-08-19T13:55:39;35.60;78.60
61004;DHT22;46889;37.310;13.582;2022-08-19T13:58:06;35.60;78.80
61004;DHT22;46889;37.310;13.582;2022-08-19T14:00:41;35.70;79.20
61004;DHT22;46889;37.310;13.582;2022-08-19T14:03:07;35.60;79.60
61004;DHT22;46889;37.310;13.582;2022-08-19T14:05:34;35.60;79.90
61004;DHT22;46889;37.310;13.582;2022-08-19T14:08:00;35.50;80.60
61004;DHT22;46889;37.310;13.582;2022-08-19T14:10:27;35.60;80.80
61004;DHT22;46889;37.310;13.582;2022-08-19T14:12:58;35.60;81.30
61004;DHT22;46889;37.310;13.582;2022-08-19T14:15:25;35.60;80.80
61004;DHT22;46889;37.310;13.582;2022-08-19T14:17:51;35.50;80.60
61004;DHT22;46889;37.310;13.582;2022-08-19T14:20:17;35.50;81.30
61004;DHT22;46889;37.310;13.582;2022-08-19T14:22:45;35.50;81.80
61004;DHT22;46889;37.310;13.582;2022-08-19T14:25:14;35.50;83.30
61004;DHT22;46889;37.310;13.582;2022-08-19T14:27:41;35.50;82.50
61004;DHT22;46889;37.310;13.582;2022-08-19T14:30:10;35.20;82.60
61004;DHT22;46889;37.310;13.582;2022-08-19T14:32:37;35.40;82.40
61004;DHT22;46889;37.310;13.582;2022-08-19T14:35:05;35.30;82.20
61004;DHT22;46889;37.310;13.582;2022-08-19T14:37:33;35.30;81.50
61004;DHT22;46889;37.310;13.582;2022-08-19T14:40:00;35.30;81.70
61004;DHT22;46889;37.310;13.582;2022-08-19T14:42:26;35.30;81.80
61004;DHT22;46889;37.310;13.582;2022-08-19T14:44:52;35.40;81.90
61004;DHT22;46889;37.310;13.582;2022-08-19T14:47:19;35.40;82.10
61004;DHT22;46889;37.310;13.582;2022-08-19T14:49:45;35.30;82.10
61004;DHT22;46889;37.310;13.582;2022-08-19T14:52:11;35.10;82.30
61004;DHT22;46889;37.310;13.582;2022-08-19T14:54:38;35.20;83.50
61004;DHT22;46889;37.310;13.582;2022-08-19T14:57:04;35.10;85.00
61004;DHT22;46889;37.310;13.582;2022-08-19T14:59:30;35.30;85.40
61004;DHT22;46889;37.310;13.582;2022-08-19T15:01:56;35.00;86.20
61004;DHT22;46889;37.310;13.582;2022-08-19T15:04:22;35.20;86.80
61004;DHT22;46889;37.310;13.582;2022-08-19T15:06:48;35.10;86.30
61004;DHT22;46889;37.310;13.582;2022-08-19T15:09:16;35.10;87.10
61004;DHT22;46889;37.310;13.582;2022-08-19T15:11:47;35.20;87.00
61004;DHT22;46889;37.310;13.582;2022-08-19T15:14:14;35.30;86.80
61004;DHT22;46889;37.310;13.582;2022-08-19T15:16:40;35.30;86.80
61004;DHT22;46889;37.310;13.582;2022-08-19T15:19:08;35.20;87.00
61004;DHT22;46889;37.310;13.582;2022-08-19T15:21:34;34.90;86.90
61004;DHT22;46889;37.310;13.582;2022-08-19T15:24:03;34.80;86.60
61004;DHT22;46889;37.310;13.582;2022-08-19T15:26:30;34.80;86.70
61004;DHT22;46889;37.310;13.582;2022-08-19T15:28:59;34.80;86.70
61004;DHT22;46889;37.310;13.582;2022-08-19T15:31:26;34.60;87.30